sensor_id;sensor_type;location;lat;lon;timestamp;P1;durP1;ratioP1;P2;durP2;ratioP2
25731;SDS011;13585;50.864;4.406;2023-07-20T00:00:04;2.92;;;1.48;;
25731;SDS011;13585;50.864;4.406;2023-07-20T00:02:30;3.15;;;1.35;;
25731;SDS011;13585;50.864;4.406;2023-07-20T00:04:56;3.92;;;1.45;;
25731;SDS011;13585;50.864;4.406;2023-07-20T00:07:22;4.60;;;1.70;;
25731;SDS011;13585;50.864;4.406;2023-07-20T00:09:47;4.18;;;1.50;;
25731;SDS011;13585;50.864;4.406;2023-07-20T00:12:13;4.10;;;1.67;;
25731;SDS011;13585;50.864;4.406;2023-07-20T00:14:39;3.45;;;1.50;;
25731;SDS011;13585;50.864;4.406;2023-07-20T00:17:04;4.43;;;1.60;;
25731;SDS011;13585;50.864;4.406;2023-07-20T00:19:30;3.45;;;1.48;;
25731;SDS011;13585;50.864;4.406;2023-07-20T00:21:57;3.92;;;1.40;;
25731;SDS011;13585;50.864;4.406;2023-07-20T00:24:23;2.33;;;1.38;;
25731;SDS011;13585;50.864;4.406;2023-07-20T00:26:49;5.25;;;1.50;;
25731;SDS011;13585;50.864;4.406;2023-07-20T00:29:14;2.42;;;1.40;;
25731;SDS011;13585;50.864;4.406;2023-07-20T00:31:40;3.22;;;1.60;;
25731;SDS011;13585;50.864;4.406;2023-07-20T00:34:06;3.00;;;1.35;;
25731;SDS011;13585;50.864;4.406;2023-07-20T00:36:32;3.55;;;1.58;;
25731;SDS011;13585;50.864;4.406;2023-07-20T00:38:57;4.78;;;1.60;;
25731;SDS011;13585;50.864;4.406;2023-07-20T00:41:23;5.88;;;1.60;;
25731;SDS011;13585;50.864;4.406;2023-07-20T00:43:50;2.97;;;1.48;;
25731;SDS011;13585;50.864;4.406;2023-07-20T00:46:15;3.63;;;1.13;;
25731;SDS011;13585;50.864;4.406;2023-07-20T00:48:41;5.22;;;1.63;;
25731;SDS011;13585;50.864;4.406;2023-07-20T00:51:07;3.67;;;1.75;;
25731;SDS011;13585;50.864;4.406;2023-07-20T00:53:34;3.33;;;1.38;;
25731;SDS011;13585;50.864;4.406;2023-07-20T00:56:00;6.78;;;1.38;;
25731;SDS011;13585;50.864;4.406;2023-07-20T00:58:25;3.13;;;1.45;;
25731;SDS011;13585;50.864;4.406;2023-07-20T01:00:51;4.32;;;1.50;;
25731;SDS011;13585;50.864;4.406;2023-07-20T01:03:17;4.03;;;1.35;;
25731;SDS011;13585;50.864;4.406;2023-07-20T01:05:51;3.78;;;1.30;;
25731;SDS011;13585;50.864;4.406;2023-07-20T01:08:33;3.67;;;1.25;;
25731;SDS011;13585;50.864;4.406;2023-07-20T01:11:03;3.65;;;1.40;;
25731;SDS011;13585;50.864;4.406;2023-07-20T01:13:34;2.72;;;1.20;;
25731;SDS011;13585;50.864;4.406;2023-07-20T01:16:02;3.03;;;1.25;;
25731;SDS011;13585;50.864;4.406;2023-07-20T01:18:28;4.40;;;1.50;;
25731;SDS011;13585;50.864;4.406;2023-07-20T01:20:55;2.60;;;1.45;;
25731;SDS011;13585;50.864;4.406;2023-07-20T01:26:27;4.30;;;1.42;;
25731;SDS011;13585;50.864;4.406;2023-07-20T01:29:21;4.72;;;1.50;;
25731;SDS011;13585;50.864;4.406;2023-07-20T01:31:51;8.50;;;1.77;;
25731;SDS011;13585;50.864;4.406;2023-07-20T01:34:18;5.45;;;1.77;;
25731;SDS011;13585;50.864;4.406;2023-07-20T01:36:47;4.53;;;1.65;;
25731;SDS011;13585;50.864;4.406;2023-07-20T01:39:14;3.47;;;1.40;;
25731;SDS011;13585;50.864;4.406;2023-07-20T01:41:41;2.53;;;1.27;;
25731;SDS011;13585;50.864;4.406;2023-07-20T01:44:08;2.38;;;1.52;;
25731;SDS011;13585;50.864;4.406;2023-07-20T01:46:33;2.90;;;1.27;;
25731;SDS011;13585;50.864;4.406;2023-07-20T01:48:59;3.22;;;1.63;;
25731;SDS011;13585;50.864;4.406;2023-07-20T01:51:24;2.58;;;1.50;;
25731;SDS011;13585;50.864;4.406;2023-07-20T01:53:50;2.55;;;1.55;;
25731;SDS011;13585;50.864;4.406;2023-07-20T01:56:16;3.15;;;1.50;;
25731;SDS011;13585;50.864;4.406;2023-07-20T01:58:41;2.75;;;1.40;;
25731;SDS011;13585;50.864;4.406;2023-07-20T02:01:07;3.30;;;1.50;;
25731;SDS011;13585;50.864;4.406;2023-07-20T02:03:32;4.03;;;1.52;;
25731;SDS011;13585;50.864;4.406;2023-07-20T02:05:58;3.33;;;1.63;;
25731;SDS011;13585;50.864;4.406;2023-07-20T02:08:24;3.53;;;1.70;;
25731;SDS011;13585;50.864;4.406;2023-07-20T02:10:50;5.47;;;1.60;;
25731;SDS011;13585;50.864;4.406;2023-07-20T02:13:16;6.00;;;1.60;;
25731;SDS011;13585;50.864;4.406;2023-07-20T02:15:42;4.63;;;1.65;;
25731;SDS011;13585;50.864;4.406;2023-07-20T02:18:08;3.33;;;1.75;;
25731;SDS011;13585;50.864;4.406;2023-07-20T02:20:34;4.45;;;1.70;;
25731;SDS011;13585;50.864;4.406;2023-07-20T02:23:00;2.78;;;1.63;;
25731;SDS011;13585;50.864;4.406;2023-07-20T02:25:26;4.05;;;1.60;;
25731;SDS011;13585;50.864;4.406;2023-07-20T02:27:52;4.72;;;1.92;;
25731;SDS011;13585;50.864;4.406;2023-07-20T02:30:17;4.90;;;1.70;;
25731;SDS011;13585;50.864;4.406;2023-07-20T02:32:43;3.90;;;1.48;;
25731;SDS011;13585;50.864;4.406;2023-07-20T02:35:13;4.38;;;1.67;;
25731;SDS011;13585;50.864;4.406;2023-07-20T02:37:39;3.53;;;1.33;;
25731;SDS011;13585;50.864;4.406;2023-07-20T02:40:05;6.85;;;1.90;;
25731;SDS011;13585;50.864;4.406;2023-07-20T02:42:32;3.28;;;1.80;;
25731;SDS011;13585;50.864;4.406;2023-07-20T02:44:58;2.97;;;1.70;;
25731;SDS011;13585;50.864;4.406;2023-07-20T02:47:23;6.78;;;1.75;;
25731;SDS011;13585;50.864;4.406;2023-07-20T02:49:49;5.75;;;2.13;;
25731;SDS011;13585;50.864;4.406;2023-07-20T02:52:14;4.65;;;1.70;;
25731;SDS011;13585;50.864;4.406;2023-07-20T02:54:40;6.20;;;1.50;;
25731;SDS011;13585;50.864;4.406;2023-07-20T02:57:06;3.00;;;1.60;;
25731;SDS011;13585;50.864;4.406;2023-07-20T02:59:31;2.95;;;1.63;;
25731;SDS011;13585;50.864;4.406;2023-07-20T03:01:57;4.25;;;1.85;;
25731;SDS011;13585;50.864;4.406;2023-07-20T03:04:25;7.15;;;1.90;;
25731;SDS011;13585;50.864;4.406;2023-07-20T03:06:51;5.13;;;1.70;;
25731;SDS011;13585;50.864;4.406;2023-07-20T03:09:17;5.47;;;1.88;;
25731;SDS011;13585;50.864;4.406;2023-07-20T03:11:42;5.00;;;1.85;;
25731;SDS011;13585;50.864;4.406;2023-07-20T03:14:08;4.13;;;1.80;;
25731;SDS011;13585;50.864;4.406;2023-07-20T03:16:35;5.50;;;1.88;;
25731;SDS011;13585;50.864;4.406;2023-07-20T03:19:01;5.00;;;1.88;;
25731;SDS011;13585;50.864;4.406;2023-07-20T03:21:27;3.28;;;1.52;;
25731;SDS011;13585;50.864;4.406;2023-07-20T03:23:53;5.75;;;2.03;;
25731;SDS011;13585;50.864;4.406;2023-07-20T03:26:19;4.28;;;1.90;;
25731;SDS011;13585;50.864;4.406;2023-07-20T03:28:45;3.90;;;2.17;;
25731;SDS011;13585;50.864;4.406;2023-07-20T03:31:10;4.75;;;1.95;;
25731;SDS011;13585;50.864;4.406;2023-07-20T03:33:36;4.85;;;1.83;;
25731;SDS011;13585;50.864;4.406;2023-07-20T03:36:02;4.85;;;1.80;;
25731;SDS011;13585;50.864;4.406;2023-07-20T03:38:27;3.78;;;2.08;;
25731;SDS011;13585;50.864;4.406;2023-07-20T03:40:54;4.18;;;2.08;;
25731;SDS011;13585;50.864;4.406;2023-07-20T03:43:21;5.93;;;1.90;;
25731;SDS011;13585;50.864;4.406;2023-07-20T03:45:48;4.30;;;1.73;;
25731;SDS011;13585;50.864;4.406;2023-07-20T03:48:15;7.30;;;2.13;;
25731;SDS011;13585;50.864;4.406;2023-07-20T03:50:41;4.63;;;2.00;;
25731;SDS011;13585;50.864;4.406;2023-07-20T03:53:07;5.03;;;2.10;;
25731;SDS011;13585;50.864;4.406;2023-07-20T03:55:32;6.88;;;1.98;;
25731;SDS011;13585;50.864;4.406;2023-07-20T03:57:58;5.07;;;1.80;;
25731;SDS011;13585;50.864;4.406;2023-07-20T04:00:23;5.32;;;1.92;;
25731;SDS011;13585;50.864;4.406;2023-07-20T04:02:49;3.08;;;1.88;;
25731;SDS011;13585;50.864;4.406;2023-07-20T04:05:15;6.30;;;2.30;;
25731;SDS011;13585;50.864;4.406;2023-07-20T04:07:40;5.10;;;2.05;;
25731;SDS011;13585;50.864;4.406;2023-07-20T04:10:06;6.28;;;2.15;;
25731;SDS011;13585;50.864;4.406;2023-07-20T04:12:32;6.18;;;2.22;;
25731;SDS011;13585;50.864;4.406;2023-07-20T04:14:57;5.30;;;2.03;;
25731;SDS011;13585;50.864;4.406;2023-07-20T04:17:23;5.20;;;2.17;;
25731;SDS011;13585;50.864;4.406;2023-07-20T04:19:48;4.00;;;2.15;;
25731;SDS011;13585;50.864;4.406;2023-07-20T04:22:14;5.38;;;2.30;;
25731;SDS011;13585;50.864;4.406;2023-07-20T04:24:41;5.82;;;2.10;;
25731;SDS011;13585;50.864;4.406;2023-07-20T04:27:07;4.07;;;1.92;;
25731;SDS011;13585;50.864;4.406;2023-07-20T04:29:33;4.38;;;2.28;;
25731;SDS011;13585;50.864;4.406;2023-07-20T04:31:59;4.55;;;1.95;;
25731;SDS011;13585;50.864;4.406;2023-07-20T04:34:24;3.80;;;1.90;;
25731;SDS011;13585;50.864;4.406;2023-07-20T04:36:50;5.40;;;2.15;;
25731;SDS011;13585;50.864;4.406;2023-07-20T04:39:16;4.78;;;2.30;;
25731;SDS011;13585;50.864;4.406;2023-07-20T04:41:42;3.15;;;1.83;;
25731;SDS011;13585;50.864;4.406;2023-07-20T04:44:07;4.28;;;2.20;;
25731;SDS011;13585;50.864;4.406;2023-07-20T04:46:33;3.28;;;2.30;;
25731;SDS011;13585;50.864;4.406;2023-07-20T04:48:59;5.38;;;1.92;;
25731;SDS011;13585;50.864;4.406;2023-07-20T04:51:24;5.10;;;1.63;;
25731;SDS011;13585;50.864;4.406;2023-07-20T04:53:50;6.28;;;2.00;;
25731;SDS011;13585;50.864;4.406;2023-07-20T04:56:16;7.38;;;2.20;;
25731;SDS011;13585;50.864;4.406;2023-07-20T04:58:41;3.90;;;1.80;;
25731;SDS011;13585;50.864;4.406;2023-07-20T05:01:08;4.93;;;2.03;;
25731;SDS011;13585;50.864;4.406;2023-07-20T05:03:33;3.47;;;1.73;;
25731;SDS011;13585;50.864;4.406;2023-07-20T05:05:59;4.95;;;2.25;;
25731;SDS011;13585;50.864;4.406;2023-07-20T05:08:27;3.97;;;2.15;;
25731;SDS011;13585;50.864;4.406;2023-07-20T05:10:53;4.97;;;2.10;;
25731;SDS011;13585;50.864;4.406;2023-07-20T05:13:18;3.88;;;2.00;;
25731;SDS011;13585;50.864;4.406;2023-07-20T05:15:44;7.63;;;1.83;;
25731;SDS011;13585;50.864;4.406;2023-07-20T05:18:09;5.53;;;2.20;;
25731;SDS011;13585;50.864;4.406;2023-07-20T05:20:35;3.60;;;1.90;;
25731;SDS011;13585;50.864;4.406;2023-07-20T05:23:02;3.47;;;1.92;;
25731;SDS011;13585;50.864;4.406;2023-07-20T05:25:27;5.82;;;2.15;;
25731;SDS011;13585;50.864;4.406;2023-07-20T05:27:53;5.43;;;2.17;;
25731;SDS011;13585;50.864;4.406;2023-07-20T05:30:20;3.92;;;2.20;;
25731;SDS011;13585;50.864;4.406;2023-07-20T05:32:46;6.38;;;1.80;;
25731;SDS011;13585;50.864;4.406;2023-07-20T05:35:16;5.80;;;2.20;;
25731;SDS011;13585;50.864;4.406;2023-07-20T05:37:44;3.72;;;1.80;;
25731;SDS011;13585;50.864;4.406;2023-07-20T05:40:11;5.70;;;1.80;;
25731;SDS011;13585;50.864;4.406;2023-07-20T05:42:37;6.20;;;2.30;;
25731;SDS011;13585;50.864;4.406;2023-07-20T05:45:04;2.45;;;1.70;;
25731;SDS011;13585;50.864;4.406;2023-07-20T05:47:30;3.47;;;1.90;;
25731;SDS011;13585;50.864;4.406;2023-07-20T05:49:57;3.17;;;1.63;;
25731;SDS011;13585;50.864;4.406;2023-07-20T05:52:25;4.00;;;2.05;;
25731;SDS011;13585;50.864;4.406;2023-07-20T05:54:51;3.97;;;1.90;;
25731;SDS011;13585;50.864;4.406;2023-07-20T05:57:16;6.57;;;1.80;;
25731;SDS011;13585;50.864;4.406;2023-07-20T05:59:42;4.15;;;1.75;;
25731;SDS011;13585;50.864;4.406;2023-07-20T06:02:09;3.55;;;1.70;;
25731;SDS011;13585;50.864;4.406;2023-07-20T06:04:35;3.60;;;1.80;;
25731;SDS011;13585;50.864;4.406;2023-07-20T06:07:01;4.40;;;1.75;;
25731;SDS011;13585;50.864;4.406;2023-07-20T06:09:27;4.22;;;2.17;;
25731;SDS011;13585;50.864;4.406;2023-07-20T06:11:52;2.47;;;1.67;;
25731;SDS011;13585;50.864;4.406;2023-07-20T06:14:18;5.43;;;2.05;;
25731;SDS011;13585;50.864;4.406;2023-07-20T06:16:44;3.67;;;1.70;;
25731;SDS011;13585;50.864;4.406;2023-07-20T06:19:10;3.88;;;1.90;;
25731;SDS011;13585;50.864;4.406;2023-07-20T06:21:38;7.55;;;1.70;;
25731;SDS011;13585;50.864;4.406;2023-07-20T06:24:04;3.30;;;1.52;;
25731;SDS011;13585;50.864;4.406;2023-07-20T06:26:30;2.95;;;1.70;;
25731;SDS011;13585;50.864;4.406;2023-07-20T06:29:03;3.67;;;1.70;;
25731;SDS011;13585;50.864;4.406;2023-07-20T06:31:28;3.80;;;1.60;;
25731;SDS011;13585;50.864;4.406;2023-07-20T06:33:54;5.43;;;1.83;;
25731;SDS011;13585;50.864;4.406;2023-07-20T06:36:19;5.28;;;1.52;;
25731;SDS011;13585;50.864;4.406;2023-07-20T06:38:45;3.35;;;1.58;;
25731;SDS011;13585;50.864;4.406;2023-07-20T06:41:11;4.22;;;1.70;;
25731;SDS011;13585;50.864;4.406;2023-07-20T06:43:36;2.13;;;1.23;;
25731;SDS011;13585;50.864;4.406;2023-07-20T06:46:02;2.22;;;1.27;;
25731;SDS011;13585;50.864;4.406;2023-07-20T06:48:27;3.75;;;1.90;;
25731;SDS011;13585;50.864;4.406;2023-07-20T06:50:53;3.35;;;1.20;;
25731;SDS011;13585;50.864;4.406;2023-07-20T06:53:19;3.22;;;1.45;;
25731;SDS011;13585;50.864;4.406;2023-07-20T06:55:44;2.25;;;1.38;;
25731;SDS011;13585;50.864;4.406;2023-07-20T06:58:10;3.80;;;1.30;;
25731;SDS011;13585;50.864;4.406;2023-07-20T07:00:36;2.83;;;1.30;;
25731;SDS011;13585;50.864;4.406;2023-07-20T07:03:02;3.78;;;1.27;;
25731;SDS011;13585;50.864;4.406;2023-07-20T07:05:28;2.72;;;1.23;;
25731;SDS011;13585;50.864;4.406;2023-07-20T07:07:53;2.42;;;1.30;;
25731;SDS011;13585;50.864;4.406;2023-07-20T07:10:19;3.22;;;1.30;;
25731;SDS011;13585;50.864;4.406;2023-07-20T07:12:44;2.35;;;1.10;;
25731;SDS011;13585;50.864;4.406;2023-07-20T07:15:10;1.73;;;1.00;;
25731;SDS011;13585;50.864;4.406;2023-07-20T07:17:36;1.98;;;1.00;;
25731;SDS011;13585;50.864;4.406;2023-07-20T07:20:02;1.92;;;1.20;;
25731;SDS011;13585;50.864;4.406;2023-07-20T07:22:28;2.53;;;1.00;;
25731;SDS011;13585;50.864;4.406;2023-07-20T07:24:55;1.52;;;0.90;;
25731;SDS011;13585;50.864;4.406;2023-07-20T07:27:21;1.75;;;1.00;;
25731;SDS011;13585;50.864;4.406;2023-07-20T07:29:46;1.45;;;0.95;;
25731;SDS011;13585;50.864;4.406;2023-07-20T07:32:13;1.00;;;0.73;;
25731;SDS011;13585;50.864;4.406;2023-07-20T07:34:39;1.90;;;0.77;;
25731;SDS011;13585;50.864;4.406;2023-07-20T07:37:05;2.65;;;0.93;;
25731;SDS011;13585;50.864;4.406;2023-07-20T07:39:31;4.65;;;0.98;;
25731;SDS011;13585;50.864;4.406;2023-07-20T07:41:56;0.95;;;0.85;;
25731;SDS011;13585;50.864;4.406;2023-07-20T07:44:22;1.27;;;0.65;;
25731;SDS011;13585;50.864;4.406;2023-07-20T07:46:48;2.08;;;1.00;;
25731;SDS011;13585;50.864;4.406;2023-07-20T07:49:14;1.15;;;0.73;;
25731;SDS011;13585;50.864;4.406;2023-07-20T07:51:40;2.65;;;0.65;;
25731;SDS011;13585;50.864;4.406;2023-07-20T07:54:06;1.58;;;0.80;;
25731;SDS011;13585;50.864;4.406;2023-07-20T07:56:31;2.10;;;0.80;;
25731;SDS011;13585;50.864;4.406;2023-07-20T07:58:57;0.88;;;0.70;;
25731;SDS011;13585;50.864;4.406;2023-07-20T08:01:22;1.45;;;0.70;;
25731;SDS011;13585;50.864;4.406;2023-07-20T08:03:48;1.27;;;0.70;;
25731;SDS011;13585;50.864;4.406;2023-07-20T08:06:14;1.52;;;0.80;;
25731;SDS011;13585;50.864;4.406;2023-07-20T08:08:40;2.50;;;0.88;;
25731;SDS011;13585;50.864;4.406;2023-07-20T08:11:05;1.42;;;0.70;;
25731;SDS011;13585;50.864;4.406;2023-07-20T08:13:31;0.82;;;0.70;;
25731;SDS011;13585;50.864;4.406;2023-07-20T08:15:57;1.20;;;0.70;;
25731;SDS011;13585;50.864;4.406;2023-07-20T08:18:23;0.50;;;0.50;;
25731;SDS011;13585;50.864;4.406;2023-07-20T08:20:49;2.15;;;0.90;;
25731;SDS011;13585;50.864;4.406;2023-07-20T08:23:15;0.80;;;0.70;;
25731;SDS011;13585;50.864;4.406;2023-07-20T08:25:41;1.50;;;0.60;;
25731;SDS011;13585;50.864;4.406;2023-07-20T08:28:15;0.73;;;0.60;;
25731;SDS011;13585;50.864;4.406;2023-07-20T08:30:46;1.75;;;0.70;;
25731;SDS011;13585;50.864;4.406;2023-07-20T08:33:13;1.67;;;0.70;;
25731;SDS011;13585;50.864;4.406;2023-07-20T08:35:40;0.73;;;0.60;;
25731;SDS011;13585;50.864;4.406;2023-07-20T08:38:06;1.40;;;0.75;;
25731;SDS011;13585;50.864;4.406;2023-07-20T08:40:41;1.15;;;0.60;;
25731;SDS011;13585;50.864;4.406;2023-07-20T08:43:10;1.10;;;0.63;;
25731;SDS011;13585;50.864;4.406;2023-07-20T08:45:37;1.38;;;0.60;;
25731;SDS011;13585;50.864;4.406;2023-07-20T08:48:05;0.60;;;0.60;;
25731;SDS011;13585;50.864;4.406;2023-07-20T08:50:31;0.40;;;0.30;;
25731;SDS011;13585;50.864;4.406;2023-07-20T08:52:58;0.80;;;0.60;;
25731;SDS011;13585;50.864;4.406;2023-07-20T08:55:28;0.88;;;0.55;;
25731;SDS011;13585;50.864;4.406;2023-07-20T08:57:55;0.80;;;0.50;;
25731;SDS011;13585;50.864;4.406;2023-07-20T09:00:22;1.00;;;0.47;;
25731;SDS011;13585;50.864;4.406;2023-07-20T09:02:49;0.57;;;0.50;;
25731;SDS011;13585;50.864;4.406;2023-07-20T09:05:16;2.58;;;0.60;;
25731;SDS011;13585;50.864;4.406;2023-07-20T09:07:43;1.00;;;0.70;;
25731;SDS011;13585;50.864;4.406;2023-07-20T09:10:08;3.67;;;0.80;;
25731;SDS011;13585;50.864;4.406;2023-07-20T09:12:35;1.60;;;0.55;;
25731;SDS011;13585;50.864;4.406;2023-07-20T09:15:02;1.25;;;0.60;;
25731;SDS011;13585;50.864;4.406;2023-07-20T09:17:28;1.00;;;0.63;;
25731;SDS011;13585;50.864;4.406;2023-07-20T09:19:54;1.67;;;0.57;;
25731;SDS011;13585;50.864;4.406;2023-07-20T09:22:20;0.73;;;0.50;;
25731;SDS011;13585;50.864;4.406;2023-07-20T09:24:46;1.98;;;0.60;;
25731;SDS011;13585;50.864;4.406;2023-07-20T09:27:12;1.15;;;0.70;;
25731;SDS011;13585;50.864;4.406;2023-07-20T09:29:47;3.10;;;2.72;;
25731;SDS011;13585;50.864;4.406;2023-07-20T09:32:17;4.00;;;2.20;;
25731;SDS011;13585;50.864;4.406;2023-07-20T09:34:46;3.20;;;2.28;;
25731;SDS011;13585;50.864;4.406;2023-07-20T09:37:11;2.28;;;1.70;;
25731;SDS011;13585;50.864;4.406;2023-07-20T09:39:46;3.45;;;1.60;;
25731;SDS011;13585;50.864;4.406;2023-07-20T09:42:12;1.35;;;1.10;;
25731;SDS011;13585;50.864;4.406;2023-07-20T09:44:38;1.27;;;1.10;;
25731;SDS011;13585;50.864;4.406;2023-07-20T09:47:05;1.73;;;1.10;;
25731;SDS011;13585;50.864;4.406;2023-07-20T09:49:31;1.42;;;1.00;;
25731;SDS011;13585;50.864;4.406;2023-07-20T09:51:57;1.52;;;0.80;;
25731;SDS011;13585;50.864;4.406;2023-07-20T09:54:25;1.55;;;0.70;;
25731;SDS011;13585;50.864;4.406;2023-07-20T09:56:52;0.88;;;0.65;;
25731;SDS011;13585;50.864;4.406;2023-07-20T09:59:18;1.48;;;0.90;;
25731;SDS011;13585;50.864;4.406;2023-07-20T10:01:44;0.68;;;0.60;;
25731;SDS011;13585;50.864;4.406;2023-07-20T10:04:11;0.70;;;0.70;;
25731;SDS011;13585;50.864;4.406;2023-07-20T10:06:37;2.97;;;0.95;;
25731;SDS011;13585;50.864;4.406;2023-07-20T10:09:07;0.90;;;0.80;;
25731;SDS011;13585;50.864;4.406;2023-07-20T10:11:35;3.35;;;0.80;;
25731;SDS011;13585;50.864;4.406;2023-07-20T10:14:04;1.75;;;0.70;;
25731;SDS011;13585;50.864;4.406;2023-07-20T10:16:42;1.45;;;0.90;;
25731;SDS011;13585;50.864;4.406;2023-07-20T10:19:14;0.50;;;0.50;;
25731;SDS011;13585;50.864;4.406;2023-07-20T10:21:51;1.40;;;0.60;;
25731;SDS011;13585;50.864;4.406;2023-07-20T10:24:35;0.80;;;0.60;;
25731;SDS011;13585;50.864;4.406;2023-07-20T10:27:01;0.90;;;0.60;;
25731;SDS011;13585;50.864;4.406;2023-07-20T10:29:27;1.27;;;0.50;;
25731;SDS011;13585;50.864;4.406;2023-07-20T10:31:54;0.82;;;0.50;;
25731;SDS011;13585;50.864;4.406;2023-07-20T10:34:26;1.33;;;0.60;;
25731;SDS011;13585;50.864;4.406;2023-07-20T10:36:53;1.17;;;0.68;;
25731;SDS011;13585;50.864;4.406;2023-07-20T10:39:25;1.70;;;0.70;;
25731;SDS011;13585;50.864;4.406;2023-07-20T10:42:17;1.35;;;0.60;;
25731;SDS011;13585;50.864;4.406;2023-07-20T10:44:44;0.70;;;0.60;;
25731;SDS011;13585;50.864;4.406;2023-07-20T10:47:12;1.58;;;0.57;;
25731;SDS011;13585;50.864;4.406;2023-07-20T10:52:23;0.68;;;0.50;;
25731;SDS011;13585;50.864;4.406;2023-07-20T10:54:49;0.50;;;0.50;;
25731;SDS011;13585;50.864;4.406;2023-07-20T10:57:33;0.65;;;0.50;;
25731;SDS011;13585;50.864;4.406;2023-07-20T11:00:08;2.05;;;0.70;;
25731;SDS011;13585;50.864;4.406;2023-07-20T11:02:42;1.65;;;0.63;;
25731;SDS011;13585;50.864;4.406;2023-07-20T11:05:30;1.42;;;0.55;;
25731;SDS011;13585;50.864;4.406;2023-07-20T11:08:11;0.55;;;0.47;;
25731;SDS011;13585;50.864;4.406;2023-07-20T11:10:40;2.55;;;0.60;;
25731;SDS011;13585;50.864;4.406;2023-07-20T11:13:24;0.77;;;0.50;;
25731;SDS011;13585;50.864;4.406;2023-07-20T11:18:26;1.80;;;0.90;;
25731;SDS011;13585;50.864;4.406;2023-07-20T11:20:53;1.27;;;0.60;;
25731;SDS011;13585;50.864;4.406;2023-07-20T11:23:22;0.77;;;0.50;;
25731;SDS011;13585;50.864;4.406;2023-07-20T11:25:48;0.90;;;0.60;;
25731;SDS011;13585;50.864;4.406;2023-07-20T11:28:15;0.60;;;0.50;;
25731;SDS011;13585;50.864;4.406;2023-07-20T11:30:40;0.90;;;0.60;;
25731;SDS011;13585;50.864;4.406;2023-07-20T11:33:09;1.10;;;0.60;;
25731;SDS011;13585;50.864;4.406;2023-07-20T11:35:37;2.30;;;0.80;;
25731;SDS011;13585;50.864;4.406;2023-07-20T11:38:12;0.90;;;0.60;;
25731;SDS011;13585;50.864;4.406;2023-07-20T11:40:44;0.95;;;0.70;;
25731;SDS011;13585;50.864;4.406;2023-07-20T11:43:11;1.75;;;0.40;;
25731;SDS011;13585;50.864;4.406;2023-07-20T11:45:38;0.95;;;0.60;;
25731;SDS011;13585;50.864;4.406;2023-07-20T11:48:04;1.35;;;0.73;;
25731;SDS011;13585;50.864;4.406;2023-07-20T11:50:30;0.90;;;0.70;;
25731;SDS011;13585;50.864;4.406;2023-07-20T11:52:55;1.20;;;0.63;;
25731;SDS011;13585;50.864;4.406;2023-07-20T11:55:22;0.90;;;0.60;;
25731;SDS011;13585;50.864;4.406;2023-07-20T12:00:29;2.00;;;0.73;;
25731;SDS011;13585;50.864;4.406;2023-07-20T12:02:54;0.70;;;0.60;;
25731;SDS011;13585;50.864;4.406;2023-07-20T12:05:22;0.70;;;0.60;;
25731;SDS011;13585;50.864;4.406;2023-07-20T12:07:48;0.70;;;0.55;;
25731;SDS011;13585;50.864;4.406;2023-07-20T12:10:16;1.65;;;0.77;;
25731;SDS011;13585;50.864;4.406;2023-07-20T12:12:52;1.35;;;0.70;;
25731;SDS011;13585;50.864;4.406;2023-07-20T12:15:22;0.60;;;0.60;;
25731;SDS011;13585;50.864;4.406;2023-07-20T12:17:50;1.38;;;0.70;;
25731;SDS011;13585;50.864;4.406;2023-07-20T12:20:26;1.70;;;0.98;;
25731;SDS011;13585;50.864;4.406;2023-07-20T12:23:00;1.40;;;0.88;;
25731;SDS011;13585;50.864;4.406;2023-07-20T12:25:33;1.75;;;0.70;;
25731;SDS011;13585;50.864;4.406;2023-07-20T12:28:04;1.40;;;0.63;;
25731;SDS011;13585;50.864;4.406;2023-07-20T12:30:30;1.30;;;0.77;;
25731;SDS011;13585;50.864;4.406;2023-07-20T12:32:56;1.20;;;0.82;;
25731;SDS011;13585;50.864;4.406;2023-07-20T12:35:22;0.93;;;0.70;;
25731;SDS011;13585;50.864;4.406;2023-07-20T12:37:47;1.48;;;0.93;;
25731;SDS011;13585;50.864;4.406;2023-07-20T12:40:14;1.65;;;1.13;;
25731;SDS011;13585;50.864;4.406;2023-07-20T12:42:39;0.77;;;0.77;;
25731;SDS011;13585;50.864;4.406;2023-07-20T12:45:05;0.88;;;0.73;;
25731;SDS011;13585;50.864;4.406;2023-07-20T12:47:31;1.23;;;0.90;;
25731;SDS011;13585;50.864;4.406;2023-07-20T12:49:57;1.25;;;1.00;;
25731;SDS011;13585;50.864;4.406;2023-07-20T12:52:22;1.00;;;0.90;;
25731;SDS011;13585;50.864;4.406;2023-07-20T12:54:48;2.25;;;0.80;;
25731;SDS011;13585;50.864;4.406;2023-07-20T12:57:13;2.35;;;0.93;;
25731;SDS011;13585;50.864;4.406;2023-07-20T12:59:40;1.27;;;1.13;;
25731;SDS011;13585;50.864;4.406;2023-07-20T13:02:06;1.10;;;1.00;;
25731;SDS011;13585;50.864;4.406;2023-07-20T13:04:32;1.73;;;0.80;;
25731;SDS011;13585;50.864;4.406;2023-07-20T13:06:57;0.98;;;0.80;;
25731;SDS011;13585;50.864;4.406;2023-07-20T13:09:23;1.30;;;0.70;;
25731;SDS011;13585;50.864;4.406;2023-07-20T13:11:50;1.92;;;0.88;;
25731;SDS011;13585;50.864;4.406;2023-07-20T13:14:16;0.75;;;0.70;;
25731;SDS011;13585;50.864;4.406;2023-07-20T13:16:42;2.22;;;1.13;;
25731;SDS011;13585;50.864;4.406;2023-07-20T13:19:07;1.15;;;0.90;;
25731;SDS011;13585;50.864;4.406;2023-07-20T13:21:33;1.27;;;0.80;;
25731;SDS011;13585;50.864;4.406;2023-07-20T13:23:59;2.75;;;0.93;;
25731;SDS011;13585;50.864;4.406;2023-07-20T13:26:24;1.15;;;0.68;;
25731;SDS011;13585;50.864;4.406;2023-07-20T13:28:50;1.00;;;0.90;;
25731;SDS011;13585;50.864;4.406;2023-07-20T13:31:16;1.60;;;0.85;;
25731;SDS011;13585;50.864;4.406;2023-07-20T13:33:42;1.33;;;0.90;;
25731;SDS011;13585;50.864;4.406;2023-07-20T13:36:08;0.90;;;0.88;;
25731;SDS011;13585;50.864;4.406;2023-07-20T13:38:34;1.55;;;1.00;;
25731;SDS011;13585;50.864;4.406;2023-07-20T13:41:00;1.27;;;1.08;;
25731;SDS011;13585;50.864;4.406;2023-07-20T13:43:25;1.08;;;0.95;;
25731;SDS011;13585;50.864;4.406;2023-07-20T13:45:51;2.00;;;1.38;;
25731;SDS011;13585;50.864;4.406;2023-07-20T13:48:17;1.75;;;1.08;;
25731;SDS011;13585;50.864;4.406;2023-07-20T13:50:44;1.33;;;1.02;;
25731;SDS011;13585;50.864;4.406;2023-07-20T13:53:10;1.80;;;1.10;;
25731;SDS011;13585;50.864;4.406;2023-07-20T13:55:36;3.13;;;0.90;;
25731;SDS011;13585;50.864;4.406;2023-07-20T13:58:03;2.35;;;1.00;;
25731;SDS011;13585;50.864;4.406;2023-07-20T14:00:29;1.98;;;1.10;;
25731;SDS011;13585;50.864;4.406;2023-07-20T14:02:58;2.25;;;1.20;;
25731;SDS011;13585;50.864;4.406;2023-07-20T14:05:24;2.35;;;1.15;;
25731;SDS011;13585;50.864;4.406;2023-07-20T14:07:50;2.63;;;1.10;;
25731;SDS011;13585;50.864;4.406;2023-07-20T14:10:16;3.08;;;1.20;;
25731;SDS011;13585;50.864;4.406;2023-07-20T14:12:42;1.60;;;1.08;;
25731;SDS011;13585;50.864;4.406;2023-07-20T14:15:09;2.50;;;1.30;;
25731;SDS011;13585;50.864;4.406;2023-07-20T14:17:35;4.18;;;1.25;;
25731;SDS011;13585;50.864;4.406;2023-07-20T14:20:01;2.00;;;1.20;;
25731;SDS011;13585;50.864;4.406;2023-07-20T14:22:30;0.90;;;0.90;;
25731;SDS011;13585;50.864;4.406;2023-07-20T14:24:56;1.63;;;1.05;;
25731;SDS011;13585;50.864;4.406;2023-07-20T14:27:21;1.00;;;0.90;;
25731;SDS011;13585;50.864;4.406;2023-07-20T14:29:47;1.83;;;1.00;;
25731;SDS011;13585;50.864;4.406;2023-07-20T14:32:12;2.28;;;1.08;;
25731;SDS011;13585;50.864;4.406;2023-07-20T14:34:38;1.60;;;0.90;;
25731;SDS011;13585;50.864;4.406;2023-07-20T14:37:05;2.20;;;1.10;;
25731;SDS011;13585;50.864;4.406;2023-07-20T14:39:31;3.28;;;1.30;;
25731;SDS011;13585;50.864;4.406;2023-07-20T14:41:56;2.10;;;1.00;;
25731;SDS011;13585;50.864;4.406;2023-07-20T14:44:22;3.33;;;1.10;;
25731;SDS011;13585;50.864;4.406;2023-07-20T14:46:48;2.35;;;1.00;;
25731;SDS011;13585;50.864;4.406;2023-07-20T14:49:14;1.35;;;0.90;;
25731;SDS011;13585;50.864;4.406;2023-07-20T14:51:39;1.55;;;1.25;;
25731;SDS011;13585;50.864;4.406;2023-07-20T14:54:11;2.00;;;1.20;;
25731;SDS011;13585;50.864;4.406;2023-07-20T14:56:37;1.23;;;0.90;;